createdAt,value
2022-08-17T00:00:43.263Z,20.20
2022-08-17T00:03:39.366Z,20.10
2022-08-17T00:06:08.492Z,20.10
2022-08-17T00:08:49.375Z,20.00
2022-08-17T00:11:19.823Z,20.00
2022-08-17T00:13:56.375Z,19.90
2022-08-17T00:16:53.423Z,19.90
2022-08-17T00:19:32.370Z,19.90
2022-08-17T00:22:32.857Z,19.80
2022-08-17T00:24:53.367Z,19.80
2022-08-17T00:27:26.372Z,19.70
2022-08-17T00:29:59.388Z,19.70
2022-08-17T00:33:15.479Z,19.70
2022-08-17T00:35:22.387Z,19.70
2022-08-17T00:37:50.089Z,19.60
2022-08-17T00:40:24.725Z,19.60
2022-08-17T00:42:52.009Z,19.50
2022-08-17T00:45:26.409Z,19.50
2022-08-17T00:47:59.383Z,19.50
2022-08-17T00:50:26.055Z,19.40
2022-08-17T00:53:02.379Z,19.40
2022-08-17T00:55:29.079Z,19.30
2022-08-17T00:58:07.395Z,19.20
2022-08-17T01:00:38.026Z,19.20
2022-08-17T01:03:20.391Z,19.20
2022-08-17T01:05:56.428Z,19.20
2022-08-17T01:08:34.406Z,19.10
2022-08-17T01:11:29.402Z,19.10
2022-08-17T01:13:56.073Z,19.00
2022-08-17T01:16:35.417Z,19.00
2022-08-17T01:19:08.082Z,19.00
2022-08-17T01:22:03.409Z,19.00
2022-08-17T01:24:37.391Z,19.00
2022-08-17T01:27:10.293Z,18.90
2022-08-17T01:29:46.406Z,18.80
2022-08-17T01:32:13.164Z,18.80
2022-08-17T01:34:50.198Z,18.70
2022-08-17T01:37:19.302Z,18.70
2022-08-17T01:39:58.601Z,18.70
2022-08-17T01:42:45.489Z,18.60
2022-08-17T01:45:26.400Z,18.60
2022-08-17T01:48:00.441Z,18.60
2022-08-17T01:50:36.418Z,18.50
2022-08-17T01:53:08.901Z,18.50
2022-08-17T01:55:55.481Z,18.50
2022-08-17T01:58:29.411Z,18.40
2022-08-17T02:01:03.794Z,18.30
2022-08-17T02:03:37.478Z,18.30
2022-08-17T02:06:06.303Z,18.20
2022-08-17T02:09:02.213Z,18.20
2022-08-17T02:11:38.400Z,18.20
2022-08-17T02:14:20.428Z,18.10
2022-08-17T02:16:53.434Z,18.10
2022-08-17T02:19:34.444Z,18.00
2022-08-17T02:22:01.227Z,17.90
2022-08-17T02:25:00.952Z,17.90
2022-08-17T02:27:42.430Z,17.90
2022-08-17T02:30:59.915Z,17.90
2022-08-17T02:33:25.500Z,17.80
2022-08-17T02:36:27.441Z,17.80
2022-08-17T02:39:00.693Z,17.70
2022-08-17T02:41:34.480Z,17.70
2022-08-17T02:44:07.612Z,17.70
2022-08-17T02:46:41.498Z,17.70
2022-08-17T02:49:14.461Z,17.70
2022-08-17T02:51:41.232Z,17.60
2022-08-17T02:54:39.888Z,17.60
2022-08-17T02:57:09.466Z,17.60
2022-08-17T02:59:36.320Z,17.50
2022-08-17T03:02:04.860Z,17.50
2022-08-17T03:04:38.471Z,17.50
2022-08-17T03:07:12.487Z,17.50
2022-08-17T03:09:39.187Z,17.50
2022-08-17T03:12:15.507Z,17.50
2022-08-17T03:14:43.468Z,17.50
2022-08-17T03:17:11.190Z,17.40
2022-08-17T03:19:50.502Z,17.40
2022-08-17T03:22:35.343Z,17.40
2022-08-17T03:25:04.885Z,17.40
2022-08-17T03:27:44.676Z,17.40
2022-08-17T03:30:22.478Z,17.40
2022-08-17T03:32:57.509Z,17.30
2022-08-17T03:35:34.508Z,17.30
2022-08-17T03:38:08.501Z,17.30
2022-08-17T03:40:56.488Z,17.30
2022-08-17T03:43:29.506Z,17.30
2022-08-17T03:46:28.528Z,17.20
2022-08-17T03:49:27.495Z,17.20
2022-08-17T03:52:20.518Z,17.20
2022-08-17T03:55:12.492Z,17.10
2022-08-17T03:57:46.516Z,17.10
2022-08-17T04:00:20.502Z,17.10
2022-08-17T04:02:47.193Z,17.10
2022-08-17T04:05:21.517Z,17.10
2022-08-17T04:07:54.509Z,17.00
2022-08-17T04:10:24.756Z,17.00
2022-08-17T04:13:01.571Z,17.00
2022-08-17T04:15:30.003Z,17.00
2022-08-17T04:18:03.786Z,16.90
2022-08-17T04:20:37.525Z,16.90
2022-08-17T04:23:12.525Z,16.90
2022-08-17T04:25:50.523Z,16.90
2022-08-17T04:28:19.004Z,16.90
2022-08-17T04:30:53.531Z,16.90
2022-08-17T04:33:23.976Z,16.90
2022-08-17T04:36:03.539Z,16.90
2022-08-17T04:38:34.178Z,16.90
2022-08-17T04:41:25.535Z,17.00
2022-08-17T04:43:55.972Z,16.90
2022-08-17T04:46:32.542Z,17.00
2022-08-17T04:49:07.533Z,17.00
2022-08-17T04:51:55.654Z,17.00
2022-08-17T04:54:33.589Z,17.00
2022-08-17T04:57:06.551Z,17.00
2022-08-17T04:59:39.557Z,17.00
2022-08-17T05:02:12.781Z,17.00
2022-08-17T05:04:41.712Z,17.10
2022-08-17T05:07:14.748Z,17.10
2022-08-17T05:09:42.741Z,17.10
2022-08-17T05:12:09.870Z,17.10
2022-08-17T05:14:45.552Z,17.10
2022-08-17T05:17:18.572Z,17.10
2022-08-17T05:19:50.009Z,17.10
2022-08-17T05:22:24.569Z,17.00
2022-08-17T05:24:53.980Z,17.00
2022-08-17T05:27:29.787Z,17.00
2022-08-17T05:30:02.427Z,17.00
2022-08-17T05:32:38.805Z,17.10
2022-08-17T05:35:07.277Z,17.10
2022-08-17T05:37:40.563Z,17.10
2022-08-17T05:40:14.570Z,17.10
2022-08-17T05:42:41.554Z,17.10
2022-08-17T05:45:09.874Z,17.20
2022-08-17T05:47:44.567Z,17.20
2022-08-17T05:50:26.092Z,17.20
2022-08-17T05:53:11.582Z,17.30
2022-08-17T05:55:51.175Z,17.30
2022-08-17T05:58:34.574Z,17.30
2022-08-17T06:01:10.696Z,17.30
2022-08-17T06:04:03.997Z,17.30
2022-08-17T06:06:58.586Z,17.40
2022-08-17T06:09:34.632Z,17.40
2022-08-17T06:12:32.580Z,17.50
2022-08-17T06:15:31.587Z,17.50
2022-08-17T06:18:14.772Z,17.60
2022-08-17T06:21:04.604Z,17.70
2022-08-17T06:23:39.010Z,17.80
2022-08-17T06:26:21.687Z,17.90
2022-08-17T06:29:21.638Z,18.00
2022-08-17T06:31:55.615Z,18.00
2022-08-17T06:34:28.609Z,18.10
2022-08-17T06:37:18.524Z,18.20
2022-08-17T06:40:22.630Z,18.20
2022-08-17T06:43:09.866Z,18.30
2022-08-17T06:46:17.594Z,18.40
2022-08-17T06:48:58.606Z,18.50
2022-08-17T06:51:49.636Z,18.60
2022-08-17T06:54:41.636Z,18.60
2022-08-17T06:57:14.709Z,18.70
2022-08-17T07:00:00.651Z,18.80
2022-08-17T07:02:53.538Z,18.90
2022-08-17T07:05:24.023Z,18.90
2022-08-17T07:08:13.630Z,19.00
2022-08-17T07:11:00.399Z,19.10
2022-08-17T07:13:39.639Z,19.20
2022-08-17T07:16:20.399Z,19.30
2022-08-17T07:18:56.657Z,19.40
2022-08-17T07:21:44.621Z,19.50
2022-08-17T07:24:26.309Z,19.60
2022-08-17T07:27:33.630Z,19.70
2022-08-17T07:30:31.823Z,19.80
2022-08-17T07:33:24.680Z,19.90
2022-08-17T07:35:59.635Z,20.10
2022-08-17T07:38:28.969Z,20.20
2022-08-17T07:41:08.738Z,20.40
2022-08-17T07:43:47.651Z,20.50
2022-08-17T07:46:39.937Z,20.60
2022-08-17T07:49:15.636Z,20.70
2022-08-17T07:51:45.790Z,20.80
2022-08-17T07:54:21.663Z,20.90
2022-08-17T07:57:03.649Z,21.00
2022-08-17T07:59:36.114Z,21.10
2022-08-17T08:02:44.642Z,21.20
2022-08-17T08:05:16.361Z,21.30
2022-08-17T08:08:32.665Z,21.40
2022-08-17T08:11:03.405Z,21.60
2022-08-17T08:13:38.643Z,21.70
2022-08-17T08:16:17.265Z,21.80
2022-08-17T08:18:56.901Z,21.90
2022-08-17T08:21:42.665Z,22.10
2022-08-17T08:24:32.321Z,22.20
2022-08-17T08:27:14.676Z,22.40
2022-08-17T08:29:53.402Z,22.60
2022-08-17T08:32:52.683Z,22.70
2022-08-17T08:35:47.742Z,22.80
2022-08-17T08:38:33.679Z,22.90
2022-08-17T08:41:12.074Z,23.10
2022-08-17T08:44:15.702Z,23.20
2022-08-17T08:46:52.392Z,23.30
2022-08-17T08:50:06.946Z,23.40
2022-08-17T08:52:58.676Z,23.40
2022-08-17T08:55:50.682Z,23.50
2022-08-17T08:58:50.695Z,23.60
2022-08-17T09:01:40.708Z,23.70
2022-08-17T09:04:24.710Z,23.80
2022-08-17T09:07:29.690Z,23.90
2022-08-17T09:10:12.146Z,24.00
2022-08-17T09:13:18.692Z,24.10
2022-08-17T09:16:05.679Z,24.20
2022-08-17T09:19:02.414Z,24.30
2022-08-17T09:22:02.987Z,24.40
2022-08-17T09:24:43.548Z,24.50
2022-08-17T09:27:29.688Z,24.60
2022-08-17T09:30:00.780Z,24.60
2022-08-17T09:32:45.714Z,24.60
2022-08-17T09:35:19.346Z,24.70
2022-08-17T09:38:17.711Z,24.70
2022-08-17T09:41:00.701Z,24.80
2022-08-17T09:43:44.655Z,24.80
2022-08-17T09:46:31.709Z,24.80
2022-08-17T09:49:23.169Z,24.80
2022-08-17T09:52:08.734Z,24.80
2022-08-17T09:54:45.697Z,24.80
2022-08-17T09:57:32.782Z,24.80
2022-08-17T10:00:24.728Z,24.80
2022-08-17T10:03:22.723Z,24.80
2022-08-17T10:06:22.185Z,24.80
2022-08-17T10:08:58.345Z,24.80
2022-08-17T10:12:09.214Z,24.80
2022-08-17T10:14:55.071Z,24.90
2022-08-17T10:17:39.525Z,25.00
2022-08-17T10:20:58.711Z,25.00
2022-08-17T10:23:53.739Z,25.10
2022-08-17T10:26:40.334Z,25.20
2022-08-17T10:29:47.494Z,25.20
2022-08-17T10:32:50.733Z,25.30
2022-08-17T10:35:41.222Z,25.40
2022-08-17T10:38:33.025Z,25.50
2022-08-17T10:41:16.217Z,25.60
2022-08-17T10:44:39.013Z,25.70
2022-08-17T10:47:08.097Z,25.80
2022-08-17T10:49:54.027Z,25.80
2022-08-17T10:52:21.864Z,25.90
2022-08-17T10:54:59.015Z,25.90
2022-08-17T10:57:41.913Z,25.90
2022-08-17T11:00:16.789Z,25.90
2022-08-17T11:02:51.160Z,25.90
2022-08-17T11:05:49.743Z,25.90
2022-08-17T11:08:57.435Z,25.90
2022-08-17T11:11:44.753Z,25.90
2022-08-17T11:14:42.772Z,25.80
2022-08-17T11:17:27.755Z,25.90
2022-08-17T11:20:19.197Z,25.90
2022-08-17T11:23:15.768Z,25.90
2022-08-17T11:25:57.765Z,25.90
2022-08-17T11:28:44.435Z,25.90
2022-08-17T11:31:41.810Z,25.90
2022-08-17T11:34:19.172Z,25.90
2022-08-17T11:36:58.792Z,25.90
2022-08-17T11:39:51.375Z,25.90
2022-08-17T11:42:52.923Z,25.90
2022-08-17T11:45:44.781Z,25.90
2022-08-17T11:49:00.828Z,25.90
2022-08-17T11:51:59.384Z,26.00
2022-08-17T11:54:38.860Z,25.90
2022-08-17T11:57:32.774Z,25.90
2022-08-17T12:00:10.582Z,25.90
2022-08-17T12:02:50.790Z,25.90
2022-08-17T12:05:17.466Z,25.90
2022-08-17T12:07:59.858Z,26.00
2022-08-17T12:10:32.863Z,26.10
2022-08-17T12:13:12.816Z,26.10
2022-08-17T12:15:48.598Z,26.20
2022-08-17T12:18:41.828Z,26.30
2022-08-17T12:21:23.794Z,26.40
2022-08-17T12:24:14.788Z,26.60
2022-08-17T12:26:44.027Z,26.70
2022-08-17T12:29:35.550Z,26.80
2022-08-17T12:32:07.141Z,27.00
2022-08-17T12:34:48.812Z,27.20
2022-08-17T12:37:31.805Z,27.40
2022-08-17T12:40:16.602Z,27.70
2022-08-17T12:43:10.802Z,28.00
2022-08-17T12:45:45.813Z,28.20
2022-08-17T12:48:28.824Z,28.50
2022-08-17T12:51:07.824Z,28.80
2022-08-17T12:53:35.768Z,29.10
2022-08-17T12:56:22.811Z,29.30
2022-08-17T12:58:54.033Z,29.50
2022-08-17T13:01:29.866Z,29.70
2022-08-17T13:04:06.844Z,29.90
2022-08-17T13:06:35.681Z,30.10
2022-08-17T13:09:17.827Z,30.20
2022-08-17T13:11:50.865Z,30.30
2022-08-17T13:14:26.847Z,30.50
2022-08-17T13:17:08.345Z,30.60
2022-08-17T13:19:55.840Z,30.80
2022-08-17T13:22:24.975Z,31.00
2022-08-17T13:25:03.406Z,31.20
2022-08-17T13:27:31.530Z,31.40
2022-08-17T13:30:08.863Z,31.50
2022-08-17T13:32:54.882Z,31.60
2022-08-17T13:35:47.675Z,31.70
2022-08-17T13:38:54.850Z,31.80
2022-08-17T13:41:38.083Z,31.90
2022-08-17T13:44:45.849Z,31.90
2022-08-17T13:47:20.281Z,32.00
2022-08-17T13:49:55.861Z,32.00
2022-08-17T13:52:40.873Z,32.00
2022-08-17T13:55:22.548Z,32.00
2022-08-17T13:58:04.142Z,32.20
2022-08-17T14:00:36.680Z,32.20
2022-08-17T14:03:11.858Z,32.20
2022-08-17T14:05:39.432Z,32.10
2022-08-17T14:08:12.840Z,32.10
2022-08-17T14:10:45.862Z,32.10
2022-08-17T14:13:19.429Z,32.10
2022-08-17T14:15:54.987Z,32.00
2022-08-17T14:18:50.512Z,31.90
2022-08-17T14:21:23.843Z,31.80
2022-08-17T14:23:57.877Z,31.70
2022-08-17T14:26:24.573Z,31.70
2022-08-17T14:28:57.894Z,31.60
2022-08-17T14:31:35.450Z,31.50
2022-08-17T14:34:17.885Z,31.40
2022-08-17T14:36:51.875Z,31.40
2022-08-17T14:39:33.981Z,31.40
2022-08-17T14:42:01.266Z,31.20
2022-08-17T14:44:40.911Z,31.20
2022-08-17T14:47:12.164Z,31.20
2022-08-17T14:49:38.887Z,31.10
2022-08-17T14:52:12.922Z,31.10
2022-08-17T14:54:45.132Z,31.10
2022-08-17T14:57:22.903Z,31.00
2022-08-17T15:00:05.895Z,30.90
2022-08-17T15:02:55.949Z,30.90
2022-08-17T15:05:32.908Z,30.90
2022-08-17T15:08:01.202Z,30.90
2022-08-17T15:10:35.929Z,30.90
2022-08-17T15:13:02.981Z,30.90
2022-08-17T15:15:30.754Z,30.90
2022-08-17T15:18:04.210Z,30.80
2022-08-17T15:20:33.871Z,30.80
2022-08-17T15:23:00.555Z,30.80
2022-08-17T15:25:37.903Z,30.70
2022-08-17T15:28:10.936Z,30.60
2022-08-17T15:30:42.836Z,30.50
2022-08-17T15:33:24.911Z,30.50
2022-08-17T15:35:52.218Z,30.60
2022-08-17T15:38:19.410Z,30.60
2022-08-17T15:40:54.938Z,30.70
2022-08-17T15:43:33.909Z,30.80
2022-08-17T15:46:16.906Z,30.90
2022-08-17T15:48:49.097Z,31.10
2022-08-17T15:51:30.930Z,31.30
2022-08-17T15:54:18.656Z,31.30
2022-08-17T15:56:49.400Z,31.40
2022-08-17T15:59:22.911Z,31.50
2022-08-17T16:03:01.470Z,31.60
2022-08-17T16:04:44.146Z,31.70
2022-08-17T16:07:17.977Z,31.70
2022-08-17T16:09:51.955Z,31.80
2022-08-17T16:12:21.150Z,31.80
2022-08-17T16:14:55.937Z,31.80
2022-08-17T16:17:39.223Z,31.90
2022-08-17T16:20:21.100Z,32.00
2022-08-17T16:22:50.215Z,32.10
2022-08-17T16:25:47.153Z,32.10
2022-08-17T16:28:22.933Z,32.20
2022-08-17T16:31:09.323Z,32.30
2022-08-17T16:34:15.788Z,32.40
2022-08-17T16:36:31.649Z,32.40
2022-08-17T16:39:06.012Z,32.50
2022-08-17T16:41:48.306Z,32.50
2022-08-17T16:44:27.002Z,32.40
2022-08-17T16:46:53.740Z,32.50
2022-08-17T16:49:37.426Z,32.50
2022-08-17T16:52:15.960Z,32.50
2022-08-17T16:55:01.516Z,32.50
2022-08-17T16:57:35.943Z,32.60
2022-08-17T17:00:04.572Z,32.60
2022-08-17T17:02:43.970Z,32.50
2022-08-17T17:05:38.633Z,32.60
2022-08-17T17:08:18.967Z,32.50
2022-08-17T17:10:51.311Z,32.60
2022-08-17T17:13:31.975Z,32.60
2022-08-17T17:16:21.430Z,32.60
2022-08-17T17:19:34.906Z,32.50
2022-08-17T17:22:38.967Z,32.30
2022-08-17T17:25:19.202Z,32.20
2022-08-17T17:28:13.979Z,32.10
2022-08-17T17:31:19.997Z,32.00
2022-08-17T17:34:04.277Z,31.90
2022-08-17T17:36:46.968Z,31.70
2022-08-17T17:39:30.009Z,31.60
2022-08-17T17:42:02.551Z,31.40
2022-08-17T17:44:41.992Z,31.30
2022-08-17T17:47:09.923Z,31.20
2022-08-17T17:49:47.989Z,31.20
2022-08-17T17:52:19.179Z,31.00
2022-08-17T17:55:20.031Z,30.90
2022-08-17T17:58:12.031Z,30.80
2022-08-17T18:01:15.006Z,30.70
2022-08-17T18:04:20.675Z,30.60
2022-08-17T18:07:21.990Z,30.70
2022-08-17T18:10:29.825Z,30.40
2022-08-17T18:13:10.376Z,30.40
2022-08-17T18:15:59.022Z,30.30
2022-08-17T18:18:44.284Z,30.10
2022-08-17T18:21:16.312Z,30.00
2022-08-17T18:23:59.016Z,29.80
2022-08-17T18:26:55.269Z,29.60
2022-08-17T18:29:35.019Z,29.60
2022-08-17T18:32:31.002Z,29.50
2022-08-17T18:35:01.832Z,29.40
2022-08-17T18:37:40.030Z,29.30
2022-08-17T18:40:26.023Z,29.20
2022-08-17T18:43:09.065Z,29.10
2022-08-17T18:45:42.023Z,29.00
2022-08-17T18:48:35.015Z,28.80
2022-08-17T18:51:48.035Z,28.70
2022-08-17T18:54:28.014Z,28.50
2022-08-17T18:57:15.054Z,28.40
2022-08-17T18:59:56.031Z,28.20
2022-08-17T19:02:45.275Z,28.10
2022-08-17T19:05:43.774Z,28.00
2022-08-17T19:08:35.060Z,27.80
2022-08-17T19:11:04.830Z,27.80
2022-08-17T19:13:46.052Z,27.70
2022-08-17T19:16:38.110Z,27.70
2022-08-17T19:19:23.416Z,27.60
2022-08-17T19:22:12.308Z,27.50
2022-08-17T19:24:48.852Z,27.40
2022-08-17T19:27:22.718Z,27.20
2022-08-17T19:30:03.922Z,27.10
2022-08-17T19:32:35.731Z,27.00
2022-08-17T19:35:15.027Z,27.00
2022-08-17T19:38:01.064Z,26.80
2022-08-17T19:40:54.592Z,26.70
2022-08-17T19:43:47.055Z,26.60
2022-08-17T19:46:29.788Z,26.60
2022-08-17T19:49:33.191Z,26.50
2022-08-17T19:52:36.286Z,26.50
2022-08-17T19:55:22.099Z,26.40
2022-08-17T19:58:06.058Z,26.30
2022-08-17T20:00:43.073Z,26.30
2022-08-17T20:03:42.642Z,26.20
2022-08-17T20:06:17.084Z,26.10
2022-08-17T20:09:14.931Z,26.00
2022-08-17T20:12:01.071Z,25.80
2022-08-17T20:14:53.535Z,25.80
2022-08-17T20:17:31.074Z,25.70
2022-08-17T20:20:08.092Z,25.60
2022-08-17T20:23:12.299Z,25.60
2022-08-17T20:26:06.072Z,25.50
2022-08-17T20:28:35.449Z,25.40
2022-08-17T20:31:15.092Z,25.30
2022-08-17T20:33:48.866Z,25.30
2022-08-17T20:36:29.093Z,25.20
2022-08-17T20:38:58.293Z,25.20
2022-08-17T20:41:41.098Z,25.10
2022-08-17T20:44:21.156Z,25.10
2022-08-17T20:47:05.450Z,25.00
2022-08-17T20:49:54.102Z,25.00
2022-08-17T20:52:42.122Z,24.90
2022-08-17T20:55:30.255Z,24.80
2022-08-17T20:58:07.099Z,24.80
2022-08-17T21:00:56.008Z,24.80
2022-08-17T21:03:50.973Z,24.80
2022-08-17T21:06:29.131Z,24.70
2022-08-17T21:09:18.815Z,24.60
2022-08-17T21:12:05.737Z,24.60
2022-08-17T21:15:06.126Z,24.50
2022-08-17T21:17:42.202Z,24.40
2022-08-17T21:20:37.206Z,24.40
2022-08-17T21:23:23.114Z,24.30
2022-08-17T21:26:20.120Z,24.20
2022-08-17T21:29:32.443Z,24.10
2022-08-17T21:32:10.122Z,24.00
2022-08-17T21:35:27.111Z,24.00
2022-08-17T21:38:11.105Z,23.90
2022-08-17T21:40:37.841Z,23.90
2022-08-17T21:43:30.125Z,23.80
2022-08-17T21:46:01.330Z,23.70
2022-08-17T21:48:37.146Z,23.60
2022-08-17T21:51:20.167Z,23.60
2022-08-17T21:54:35.131Z,23.50
2022-08-17T21:57:11.127Z,23.40
2022-08-17T21:59:46.144Z,23.40
2022-08-17T22:02:42.695Z,23.30
2022-08-17T22:05:20.168Z,23.20
2022-08-17T22:07:50.753Z,23.20
2022-08-17T22:10:56.163Z,23.10
2022-08-17T22:13:36.175Z,23.10
2022-08-17T22:16:29.032Z,23.00
2022-08-17T22:18:58.130Z,23.00
2022-08-17T22:21:32.142Z,22.90
2022-08-17T22:24:05.405Z,22.80
2022-08-17T22:27:06.171Z,22.80
2022-08-17T22:29:53.262Z,22.70
2022-08-17T22:32:50.174Z,22.70
2022-08-17T22:35:25.145Z,22.60
2022-08-17T22:37:52.062Z,22.60
2022-08-17T22:40:40.151Z,22.50
2022-08-17T22:43:12.512Z,22.50
2022-08-17T22:45:53.182Z,22.50
2022-08-17T22:48:30.168Z,22.50
2022-08-17T22:51:12.561Z,22.40
2022-08-17T22:54:16.178Z,22.40
2022-08-17T22:57:38.239Z,22.30
2022-08-17T23:00:13.194Z,22.20
2022-08-17T23:02:55.349Z,22.20
2022-08-17T23:05:23.995Z,22.20
2022-08-17T23:07:59.198Z,22.10
2022-08-17T23:10:34.199Z,22.10
2022-08-17T23:13:01.301Z,22.00
2022-08-17T23:15:33.819Z,22.00
2022-08-17T23:18:11.180Z,21.90
2022-08-17T23:20:40.187Z,21.80
2022-08-17T23:23:14.477Z,21.80
2022-08-17T23:25:51.174Z,21.70
2022-08-17T23:28:25.165Z,21.70
2022-08-17T23:30:58.192Z,21.60
2022-08-17T23:33:30.885Z,21.60
2022-08-17T23:36:05.224Z,21.50
2022-08-17T23:38:33.203Z,21.50
2022-08-17T23:41:09.178Z,21.40
2022-08-17T23:43:36.294Z,21.40
2022-08-17T23:46:11.003Z,21.30
2022-08-17T23:48:44.189Z,21.30
2022-08-17T23:51:28.187Z,21.20
2022-08-17T23:54:07.963Z,21.10
2022-08-17T23:56:46.215Z,21.10
2022-08-17T23:59:25.197Z,21.00
